Time;durP1;ratioP1;P1;durP2;ratioP2;P2;SDS_P1;SDS_P2;PMS_P1;PMS_P2;Temp;Humidity;BMP_temperature;BMP_pressure;BME280_temperature;BME280_humidity;BME280_pressure;Samples;Min_cycle;Max_cycle;Signal;HPM_P1;HPM_P2
2022/04/29 20:44:00;;;;;;;23.57;12.80;;;17.80;49.60;;;;;;5058423;27;88390;-70
2022/04/29 20:46:30;;;;;;;30.40;16.17;;;18.30;49.60;;;;;;5059346;27;88407;-66
2022/04/29 20:49:02;;;;;;;31.03;17.23;;;18.80;49.40;;;;;;5059001;27;92403;-66
2022/04/29 20:51:30;;;;;;;28.10;15.83;;;19.20;49.80;;;;;;5059106;27;89958;-68
2022/04/29 20:53:59;;;;;;;25.97;15.30;;;19.50;48.90;;;;;;5051330;27;88353;-67
2022/04/29 20:56:29;;;;;;;33.33;18.57;;;19.80;48.70;;;;;;5036099;27;88746;-68
2022/04/29 20:58:57;;;;;;;31.50;17.60;;;20.00;48.60;;;;;;5036971;28;92618;-67
2022/04/29 21:01:27;;;;;;;33.90;19.43;;;20.20;48.50;;;;;;5035951;27;89933;-68
2022/04/29 21:03:55;;;;;;;35.47;20.23;;;20.30;48.30;;;;;;5037476;27;88393;-67
2022/04/29 21:06:23;;;;;;;38.43;21.70;;;20.40;48.20;;;;;;5037072;27;88541;-67
2022/04/29 21:08:52;;;;;;;34.23;19.57;;;20.50;48.10;;;;;;5036702;28;88465;-68
2022/04/29 21:11:20;;;;;;;34.00;20.93;;;20.50;47.90;;;;;;5037043;28;90287;-68
2022/04/29 21:13:49;;;;;;;33.57;21.43;;;20.60;47.80;;;;;;5036903;28;88281;-68
2022/04/29 21:16:18;;;;;;;35.60;21.23;;;20.60;47.70;;;;;;5038171;28;88334;-68
2022/04/29 21:18:46;;;;;;;35.90;23.17;;;20.70;47.60;;;;;;5037023;28;90575;-68
2022/04/29 21:21:14;;;;;;;35.43;20.40;;;20.70;47.60;;;;;;5035659;28;90173;-68
2022/04/29 21:23:42;;;;;;;36.27;21.77;;;20.70;47.40;;;;;;5028201;28;88361;-68
2022/04/29 21:26:10;;;;;;;37.93;19.97;;;20.70;47.40;;;;;;5028278;28;88241;-68
2022/04/29 21:31:26;;;;;;;30.87;19.70;;;20.80;47.30;;;;;;5037422;27;90303;-68
2022/04/29 21:33:54;;;;;;;34.23;19.50;;;20.80;47.20;;;;;;5036321;27;88599;-68
2022/04/29 21:36:22;;;;;;;36.00;21.50;;;20.80;47.70;;;;;;5037247;27;88553;-68
2022/04/29 21:38:50;;;;;;;34.13;20.20;;;20.80;47.00;;;;;;5037378;28;90652;-69
2022/04/29 21:41:18;;;;;;;38.50;20.60;;;20.80;47.00;;;;;;5037194;28;93455;-68
2022/04/29 21:43:46;;;;;;;32.23;19.27;;;20.80;46.90;;;;;;5037788;27;88439;-68
2022/04/29 21:46:14;;;;;;;35.20;19.40;;;20.80;46.90;;;;;;5037453;28;88462;-68
2022/04/29 21:48:44;;;;;;;32.83;17.87;;;20.80;46.70;;;;;;5037151;27;90359;-69
2022/04/29 21:51:12;;;;;;;32.83;18.27;;;20.80;46.70;;;;;;5030275;28;89944;-68
2022/04/29 21:53:40;;;;;;;30.00;17.87;;;20.80;46.60;;;;;;5022940;28;88248;-69
2022/04/29 21:56:09;;;;;;;40.40;19.53;;;20.80;46.60;;;;;;5023653;28;88367;-68
2022/04/29 21:58:37;;;;;;;31.37;18.27;;;20.80;46.50;;;;;;5022512;28;91297;-68
2022/04/29 22:01:05;;;;;;;31.37;17.53;;;20.80;46.40;;;;;;5022781;28;93537;-68
2022/04/29 22:03:35;;;;;;;30.70;16.90;;;20.80;46.40;;;;;;5022789;28;88486;-68
2022/04/29 22:06:06;;;;;;;27.83;16.93;;;20.80;46.30;;;;;;5022249;28;88513;-68
2022/04/29 22:08:35;;;;;;;25.23;16.00;;;20.80;46.20;;;;;;5022648;28;89466;-68
2022/04/29 22:11:05;;;;;;;22.83;14.60;;;20.80;46.20;;;;;;5022262;28;88537;-68
2022/04/29 22:13:34;;;;;;;24.07;16.10;;;20.80;46.10;;;;;;5022725;27;88310;-69
2022/04/29 22:16:02;;;;;;;23.63;12.73;;;20.80;46.10;;;;;;5003209;28;88627;-68
2022/04/29 22:18:30;;;;;;;20.73;13.20;;;20.80;46.00;;;;;;5017040;28;90631;-68
2022/04/29 22:20:58;;;;;;;26.07;14.23;;;20.80;46.00;;;;;;5008679;28;90014;-68
2022/04/29 22:23:28;;;;;;;23.50;13.10;;;20.80;45.90;;;;;;5021051;28;88370;-68
2022/04/29 22:25:56;;;;;;;22.90;14.17;;;20.80;45.90;;;;;;5019941;28;88490;-68
2022/04/29 22:28:24;;;;;;;23.30;12.83;;;20.80;45.80;;;;;;5014008;28;89778;-68
2022/04/29 22:30:52;;;;;;;21.53;13.40;;;20.80;45.80;;;;;;5022337;28;89995;-68
2022/04/29 22:33:20;;;;;;;21.90;13.20;;;20.80;45.70;;;;;;5019616;28;88233;-68
2022/04/29 22:35:49;;;;;;;20.77;13.00;;;20.80;45.70;;;;;;5021188;28;88785;-68
2022/04/29 22:38:17;;;;;;;18.20;11.73;;;20.80;45.70;;;;;;5019590;28;91896;-67
2022/04/29 22:40:46;;;;;;;18.93;11.17;;;20.80;45.60;;;;;;5020853;28;90049;-68
2022/04/29 22:43:15;;;;;;;16.47;10.67;;;20.80;45.60;;;;;;5005012;28;88400;-68
2022/04/29 22:45:43;;;;;;;19.40;10.43;;;20.80;45.60;;;;;;5019081;28;88448;-68
2022/04/29 22:48:11;;;;;;;14.77;9.40;;;20.80;45.60;;;;;;5019209;28;92717;-68
2022/04/29 22:50:39;;;;;;;15.63;9.43;;;20.80;45.50;;;;;;5021418;28;90451;-68
2022/04/29 22:53:07;;;;;;;16.40;10.00;;;20.80;45.50;;;;;;5008816;28;88389;-68
2022/04/29 22:55:35;;;;;;;15.43;8.97;;;20.80;45.40;;;;;;5003214;28;88550;-68
2022/04/29 22:58:05;;;;;;;14.60;9.87;;;20.80;45.40;;;;;;5003396;28;89398;-68
2022/04/29 23:00:34;;;;;;;15.13;9.57;;;20.80;45.30;;;;;;5016324;28;90024;-68
2022/04/29 23:03:03;;;;;;;13.00;7.63;;;20.80;45.30;;;;;;5016358;28;88322;-68
2022/04/29 23:05:31;;;;;;;15.80;8.03;;;20.80;45.30;;;;;;5023223;28;88379;-68
2022/04/29 23:07:59;;;;;;;15.10;8.10;;;20.80;45.20;;;;;;5022722;28;93740;-68
2022/04/29 23:10:29;;;;;;;16.27;6.97;;;20.80;45.20;;;;;;5003426;28;89064;-68
2022/04/29 23:12:57;;;;;;;12.23;6.87;;;20.70;45.20;;;;;;5016517;28;88493;-68
2022/04/29 23:15:27;;;;;;;11.93;7.87;;;20.80;45.20;;;;;;5021997;28;88593;-69
2022/04/29 23:20:41;;;;;;;11.07;6.47;;;20.70;45.10;;;;;;5020189;28;90006;-68
2022/04/29 23:23:10;;;;;;;9.60;6.50;;;20.70;45.00;;;;;;5008832;28;88560;-69
2022/04/29 23:25:41;;;;;;;12.80;6.63;;;20.70;45.00;;;;;;5004889;28;88100;-68
2022/04/29 23:28:09;;;;;;;9.57;6.10;;;20.70;45.00;;;;;;5020487;28;90409;-68
2022/04/29 23:30:39;;;;;;;8.73;4.93;;;20.70;45.00;;;;;;5022441;28;88550;-69
2022/04/29 23:33:08;;;;;;;7.87;4.90;;;20.70;44.90;;;;;;5017023;28;88699;-68
2022/04/29 23:35:36;;;;;;;7.90;5.13;;;20.70;44.90;;;;;;5008053;28;89622;-68
2022/04/29 23:38:05;;;;;;;8.00;5.63;;;20.70;44.90;;;;;;5023239;28;90669;-69
2022/04/29 23:40:33;;;;;;;9.63;5.70;;;20.70;44.80;;;;;;5021752;28;90214;-68
2022/04/29 23:43:01;;;;;;;7.50;4.50;;;20.70;44.80;;;;;;5002608;28;88416;-68
2022/04/29 23:45:29;;;;;;;8.53;5.17;;;20.70;44.80;;;;;;5002751;28;88334;-68
2022/04/29 23:47:59;;;;;;;6.90;5.10;;;20.70;44.80;;;;;;5015815;28;89399;-69
2022/04/29 23:50:27;;;;;;;7.87;4.90;;;20.70;44.80;;;;;;5018188;28;92299;-68
2022/04/29 23:52:56;;;;;;;6.87;4.47;;;20.70;44.70;;;;;;5019882;28;89728;-68
2022/04/29 23:55:25;;;;;;;6.23;4.47;;;20.70;44.70;;;;;;5021150;28;88454;-68
2022/04/29 23:57:53;;;;;;;6.33;4.17;;;20.70;44.70;;;;;;5017882;28;92885;-68
